sensor_id;sensor_type;location;lat;lon;timestamp;P1;durP1;ratioP1;P2;durP2;ratioP2
77726;SDS011;68312;53.502;10.030;2023-04-21T00:02:05;16.50;;;7.85;;
77726;SDS011;68312;53.502;10.030;2023-04-21T00:04:31;14.55;;;8.07;;
77726;SDS011;68312;53.502;10.030;2023-04-21T00:07:03;13.80;;;7.80;;
77726;SDS011;68312;53.502;10.030;2023-04-21T00:09:28;14.50;;;7.40;;
77726;SDS011;68312;53.502;10.030;2023-04-21T00:11:54;18.10;;;8.90;;
77726;SDS011;68312;53.502;10.030;2023-04-21T00:14:20;17.02;;;8.68;;
77726;SDS011;68312;53.502;10.030;2023-04-21T00:16:45;21.25;;;8.43;;
77726;SDS011;68312;53.502;10.030;2023-04-21T00:19:11;20.48;;;8.63;;
77726;SDS011;68312;53.502;10.030;2023-04-21T00:21:38;11.68;;;7.55;;
77726;SDS011;68312;53.502;10.030;2023-04-21T00:24:04;15.65;;;7.57;;
77726;SDS011;68312;53.502;10.030;2023-04-21T00:26:30;16.55;;;7.93;;
77726;SDS011;68312;53.502;10.030;2023-04-21T00:28:56;17.33;;;8.20;;
77726;SDS011;68312;53.502;10.030;2023-04-21T00:31:21;15.80;;;7.38;;
77726;SDS011;68312;53.502;10.030;2023-04-21T00:33:47;14.77;;;7.53;;
77726;SDS011;68312;53.502;10.030;2023-04-21T00:36:12;14.98;;;7.28;;
77726;SDS011;68312;53.502;10.030;2023-04-21T00:38:38;20.80;;;8.23;;
77726;SDS011;68312;53.502;10.030;2023-04-21T00:41:06;18.20;;;8.13;;
77726;SDS011;68312;53.502;10.030;2023-04-21T00:43:32;18.88;;;7.45;;
77726;SDS011;68312;53.502;10.030;2023-04-21T00:45:57;13.85;;;7.63;;
77726;SDS011;68312;53.502;10.030;2023-04-21T00:48:26;15.70;;;8.00;;
77726;SDS011;68312;53.502;10.030;2023-04-21T00:50:51;14.75;;;7.47;;
77726;SDS011;68312;53.502;10.030;2023-04-21T00:53:17;17.00;;;8.07;;
77726;SDS011;68312;53.502;10.030;2023-04-21T00:55:45;15.27;;;8.25;;
77726;SDS011;68312;53.502;10.030;2023-04-21T00:58:11;17.63;;;7.72;;
77726;SDS011;68312;53.502;10.030;2023-04-21T01:00:37;16.52;;;7.35;;
77726;SDS011;68312;53.502;10.030;2023-04-21T01:03:03;14.35;;;7.07;;
77726;SDS011;68312;53.502;10.030;2023-04-21T01:05:31;11.07;;;6.82;;
77726;SDS011;68312;53.502;10.030;2023-04-21T01:07:57;19.58;;;7.20;;
77726;SDS011;68312;53.502;10.030;2023-04-21T01:10:23;14.43;;;7.35;;
77726;SDS011;68312;53.502;10.030;2023-04-21T01:12:48;14.15;;;6.82;;
77726;SDS011;68312;53.502;10.030;2023-04-21T01:15:15;13.45;;;7.18;;
77726;SDS011;68312;53.502;10.030;2023-04-21T01:17:42;14.40;;;7.47;;
77726;SDS011;68312;53.502;10.030;2023-04-21T01:20:09;13.57;;;7.97;;
77726;SDS011;68312;53.502;10.030;2023-04-21T01:22:39;14.02;;;6.75;;
77726;SDS011;68312;53.502;10.030;2023-04-21T01:25:08;18.48;;;7.18;;
77726;SDS011;68312;53.502;10.030;2023-04-21T01:27:34;18.70;;;8.43;;
77726;SDS011;68312;53.502;10.030;2023-04-21T01:29:59;15.02;;;8.15;;
77726;SDS011;68312;53.502;10.030;2023-04-21T01:32:26;13.38;;;7.25;;
77726;SDS011;68312;53.502;10.030;2023-04-21T01:34:54;13.68;;;7.70;;
77726;SDS011;68312;53.502;10.030;2023-04-21T01:37:23;11.95;;;7.13;;
77726;SDS011;68312;53.502;10.030;2023-04-21T01:39:55;13.60;;;6.97;;
77726;SDS011;68312;53.502;10.030;2023-04-21T01:42:27;12.00;;;7.57;;
77726;SDS011;68312;53.502;10.030;2023-04-21T01:44:54;15.77;;;7.75;;
77726;SDS011;68312;53.502;10.030;2023-04-21T01:47:21;12.80;;;7.28;;
77726;SDS011;68312;53.502;10.030;2023-04-21T01:49:49;14.95;;;7.20;;
77726;SDS011;68312;53.502;10.030;2023-04-21T01:52:15;15.80;;;7.90;;
77726;SDS011;68312;53.502;10.030;2023-04-21T01:54:44;13.52;;;7.22;;
77726;SDS011;68312;53.502;10.030;2023-04-21T01:57:10;12.00;;;6.53;;
77726;SDS011;68312;53.502;10.030;2023-04-21T01:59:35;20.27;;;8.82;;
77726;SDS011;68312;53.502;10.030;2023-04-21T02:02:02;12.27;;;6.88;;
77726;SDS011;68312;53.502;10.030;2023-04-21T02:04:28;10.95;;;6.60;;
77726;SDS011;68312;53.502;10.030;2023-04-21T02:06:53;14.82;;;7.40;;
77726;SDS011;68312;53.502;10.030;2023-04-21T02:09:19;12.50;;;6.95;;
77726;SDS011;68312;53.502;10.030;2023-04-21T02:11:45;16.08;;;8.02;;
77726;SDS011;68312;53.502;10.030;2023-04-21T02:14:10;14.45;;;7.50;;
77726;SDS011;68312;53.502;10.030;2023-04-21T02:16:36;12.02;;;7.43;;
77726;SDS011;68312;53.502;10.030;2023-04-21T02:19:01;14.35;;;6.78;;
77726;SDS011;68312;53.502;10.030;2023-04-21T02:21:27;16.15;;;6.75;;
77726;SDS011;68312;53.502;10.030;2023-04-21T02:23:53;15.38;;;6.65;;
77726;SDS011;68312;53.502;10.030;2023-04-21T02:26:19;14.15;;;7.78;;
77726;SDS011;68312;53.502;10.030;2023-04-21T02:28:45;14.93;;;7.50;;
77726;SDS011;68312;53.502;10.030;2023-04-21T02:31:11;14.45;;;7.85;;
77726;SDS011;68312;53.502;10.030;2023-04-21T02:33:40;15.02;;;7.63;;
77726;SDS011;68312;53.502;10.030;2023-04-21T02:36:06;14.40;;;7.32;;
77726;SDS011;68312;53.502;10.030;2023-04-21T02:38:32;16.83;;;7.88;;
77726;SDS011;68312;53.502;10.030;2023-04-21T02:40:57;13.20;;;6.70;;
77726;SDS011;68312;53.502;10.030;2023-04-21T02:43:23;16.42;;;7.35;;
77726;SDS011;68312;53.502;10.030;2023-04-21T02:45:49;19.35;;;7.80;;
77726;SDS011;68312;53.502;10.030;2023-04-21T02:48:15;15.27;;;6.68;;
77726;SDS011;68312;53.502;10.030;2023-04-21T02:50:44;11.88;;;7.40;;
77726;SDS011;68312;53.502;10.030;2023-04-21T02:53:10;13.88;;;6.82;;
77726;SDS011;68312;53.502;10.030;2023-04-21T02:55:35;21.58;;;7.05;;
77726;SDS011;68312;53.502;10.030;2023-04-21T02:58:01;16.00;;;7.22;;
77726;SDS011;68312;53.502;10.030;2023-04-21T03:00:26;11.10;;;7.53;;
77726;SDS011;68312;53.502;10.030;2023-04-21T03:02:52;12.55;;;6.35;;
77726;SDS011;68312;53.502;10.030;2023-04-21T03:05:17;16.42;;;7.28;;
77726;SDS011;68312;53.502;10.030;2023-04-21T03:07:43;10.90;;;6.72;;
77726;SDS011;68312;53.502;10.030;2023-04-21T03:10:10;13.18;;;7.50;;
77726;SDS011;68312;53.502;10.030;2023-04-21T03:12:36;13.52;;;7.07;;
77726;SDS011;68312;53.502;10.030;2023-04-21T03:15:02;17.33;;;7.20;;
77726;SDS011;68312;53.502;10.030;2023-04-21T03:17:30;16.42;;;7.85;;
77726;SDS011;68312;53.502;10.030;2023-04-21T03:19:55;12.38;;;6.45;;
77726;SDS011;68312;53.502;10.030;2023-04-21T03:22:21;11.30;;;6.85;;
77726;SDS011;68312;53.502;10.030;2023-04-21T03:24:46;16.00;;;7.07;;
77726;SDS011;68312;53.502;10.030;2023-04-21T03:27:12;16.52;;;7.57;;
77726;SDS011;68312;53.502;10.030;2023-04-21T03:29:40;11.60;;;7.15;;
77726;SDS011;68312;53.502;10.030;2023-04-21T03:32:06;12.02;;;6.82;;
77726;SDS011;68312;53.502;10.030;2023-04-21T03:34:31;16.00;;;7.90;;
77726;SDS011;68312;53.502;10.030;2023-04-21T03:36:57;12.85;;;7.47;;
77726;SDS011;68312;53.502;10.030;2023-04-21T03:39:22;16.25;;;7.07;;
77726;SDS011;68312;53.502;10.030;2023-04-21T03:41:48;13.93;;;7.00;;
77726;SDS011;68312;53.502;10.030;2023-04-21T03:44:13;13.82;;;7.25;;
77726;SDS011;68312;53.502;10.030;2023-04-21T03:46:39;14.88;;;6.82;;
77726;SDS011;68312;53.502;10.030;2023-04-21T03:49:04;15.40;;;6.97;;
77726;SDS011;68312;53.502;10.030;2023-04-21T03:51:30;12.85;;;6.65;;
77726;SDS011;68312;53.502;10.030;2023-04-21T03:53:56;11.55;;;7.18;;
77726;SDS011;68312;53.502;10.030;2023-04-21T03:56:22;12.82;;;7.53;;
77726;SDS011;68312;53.502;10.030;2023-04-21T03:58:48;12.93;;;7.40;;
77726;SDS011;68312;53.502;10.030;2023-04-21T04:01:13;15.07;;;8.10;;
77726;SDS011;68312;53.502;10.030;2023-04-21T04:03:42;13.85;;;6.82;;
77726;SDS011;68312;53.502;10.030;2023-04-21T04:06:08;12.60;;;6.97;;
77726;SDS011;68312;53.502;10.030;2023-04-21T04:08:33;16.58;;;7.20;;
77726;SDS011;68312;53.502;10.030;2023-04-21T04:10:59;14.40;;;7.40;;
77726;SDS011;68312;53.502;10.030;2023-04-21T04:13:24;16.05;;;8.05;;
77726;SDS011;68312;53.502;10.030;2023-04-21T04:15:51;16.50;;;7.30;;
77726;SDS011;68312;53.502;10.030;2023-04-21T04:18:17;13.05;;;7.32;;
77726;SDS011;68312;53.502;10.030;2023-04-21T04:20:43;12.88;;;7.50;;
77726;SDS011;68312;53.502;10.030;2023-04-21T04:23:08;16.60;;;7.25;;
77726;SDS011;68312;53.502;10.030;2023-04-21T04:25:34;16.15;;;7.13;;
77726;SDS011;68312;53.502;10.030;2023-04-21T04:28:01;15.38;;;6.88;;
77726;SDS011;68312;53.502;10.030;2023-04-21T04:30:27;15.77;;;7.00;;
77726;SDS011;68312;53.502;10.030;2023-04-21T04:32:53;13.63;;;7.57;;
77726;SDS011;68312;53.502;10.030;2023-04-21T04:35:21;14.15;;;7.88;;
77726;SDS011;68312;53.502;10.030;2023-04-21T04:37:47;16.05;;;8.18;;
77726;SDS011;68312;53.502;10.030;2023-04-21T04:40:13;11.52;;;7.85;;
77726;SDS011;68312;53.502;10.030;2023-04-21T04:42:39;12.45;;;6.90;;
77726;SDS011;68312;53.502;10.030;2023-04-21T04:45:07;14.25;;;7.60;;
77726;SDS011;68312;53.502;10.030;2023-04-21T04:47:36;14.73;;;7.40;;
77726;SDS011;68312;53.502;10.030;2023-04-21T04:50:02;13.57;;;7.35;;
77726;SDS011;68312;53.502;10.030;2023-04-21T04:52:29;15.50;;;7.55;;
77726;SDS011;68312;53.502;10.030;2023-04-21T04:54:55;14.10;;;7.72;;
77726;SDS011;68312;53.502;10.030;2023-04-21T04:57:21;13.55;;;7.25;;
77726;SDS011;68312;53.502;10.030;2023-04-21T04:59:46;12.85;;;7.40;;
77726;SDS011;68312;53.502;10.030;2023-04-21T05:02:12;12.18;;;7.03;;
77726;SDS011;68312;53.502;10.030;2023-04-21T05:04:37;15.48;;;7.38;;
77726;SDS011;68312;53.502;10.030;2023-04-21T05:07:04;15.50;;;8.32;;
77726;SDS011;68312;53.502;10.030;2023-04-21T05:09:33;18.55;;;7.20;;
77726;SDS011;68312;53.502;10.030;2023-04-21T05:11:58;14.70;;;7.95;;
77726;SDS011;68312;53.502;10.030;2023-04-21T05:14:25;14.85;;;7.55;;
77726;SDS011;68312;53.502;10.030;2023-04-21T05:16:51;14.65;;;7.32;;
77726;SDS011;68312;53.502;10.030;2023-04-21T05:19:17;12.68;;;7.10;;
77726;SDS011;68312;53.502;10.030;2023-04-21T05:21:42;13.73;;;7.75;;
77726;SDS011;68312;53.502;10.030;2023-04-21T05:24:08;11.85;;;6.95;;
77726;SDS011;68312;53.502;10.030;2023-04-21T05:26:33;12.57;;;6.95;;
77726;SDS011;68312;53.502;10.030;2023-04-21T05:28:59;11.38;;;5.70;;
77726;SDS011;68312;53.502;10.030;2023-04-21T05:31:25;13.35;;;7.15;;
77726;SDS011;68312;53.502;10.030;2023-04-21T05:33:50;11.00;;;6.38;;
77726;SDS011;68312;53.502;10.030;2023-04-21T05:36:17;15.38;;;7.30;;
77726;SDS011;68312;53.502;10.030;2023-04-21T05:38:44;14.45;;;7.72;;
77726;SDS011;68312;53.502;10.030;2023-04-21T05:41:10;12.75;;;6.78;;
77726;SDS011;68312;53.502;10.030;2023-04-21T05:43:36;13.57;;;7.00;;
77726;SDS011;68312;53.502;10.030;2023-04-21T05:46:02;17.48;;;7.97;;
77726;SDS011;68312;53.502;10.030;2023-04-21T05:48:34;13.63;;;7.57;;
77726;SDS011;68312;53.502;10.030;2023-04-21T05:51:07;13.80;;;7.47;;
77726;SDS011;68312;53.502;10.030;2023-04-21T05:53:39;13.90;;;7.20;;
77726;SDS011;68312;53.502;10.030;2023-04-21T05:56:07;15.63;;;7.28;;
77726;SDS011;68312;53.502;10.030;2023-04-21T05:58:34;12.68;;;6.75;;
77726;SDS011;68312;53.502;10.030;2023-04-21T06:01:01;13.95;;;6.88;;
77726;SDS011;68312;53.502;10.030;2023-04-21T06:03:26;13.93;;;7.35;;
77726;SDS011;68312;53.502;10.030;2023-04-21T06:05:55;14.82;;;6.97;;
77726;SDS011;68312;53.502;10.030;2023-04-21T06:08:22;12.77;;;7.35;;
77726;SDS011;68312;53.502;10.030;2023-04-21T06:10:47;16.17;;;7.03;;
77726;SDS011;68312;53.502;10.030;2023-04-21T06:13:16;13.13;;;7.30;;
77726;SDS011;68312;53.502;10.030;2023-04-21T06:15:42;13.93;;;6.85;;
77726;SDS011;68312;53.502;10.030;2023-04-21T06:18:08;15.88;;;6.93;;
77726;SDS011;68312;53.502;10.030;2023-04-21T06:20:33;13.25;;;6.93;;
77726;SDS011;68312;53.502;10.030;2023-04-21T06:22:59;16.30;;;7.07;;
77726;SDS011;68312;53.502;10.030;2023-04-21T06:25:24;11.05;;;6.45;;
77726;SDS011;68312;53.502;10.030;2023-04-21T06:27:50;10.38;;;6.65;;
77726;SDS011;68312;53.502;10.030;2023-04-21T06:30:16;12.35;;;7.10;;
77726;SDS011;68312;53.502;10.030;2023-04-21T06:32:41;13.05;;;7.13;;
77726;SDS011;68312;53.502;10.030;2023-04-21T06:35:13;13.23;;;6.35;;
77726;SDS011;68312;53.502;10.030;2023-04-21T06:37:41;12.10;;;6.63;;
77726;SDS011;68312;53.502;10.030;2023-04-21T06:40:07;11.32;;;6.85;;
77726;SDS011;68312;53.502;10.030;2023-04-21T06:42:36;11.88;;;7.05;;
77726;SDS011;68312;53.502;10.030;2023-04-21T06:45:01;12.73;;;6.40;;
77726;SDS011;68312;53.502;10.030;2023-04-21T06:47:27;13.00;;;6.97;;
77726;SDS011;68312;53.502;10.030;2023-04-21T06:49:53;13.65;;;7.10;;
77726;SDS011;68312;53.502;10.030;2023-04-21T06:52:18;16.33;;;7.15;;
77726;SDS011;68312;53.502;10.030;2023-04-21T06:54:44;10.05;;;6.97;;
77726;SDS011;68312;53.502;10.030;2023-04-21T06:57:09;14.10;;;6.95;;
77726;SDS011;68312;53.502;10.030;2023-04-21T06:59:39;11.05;;;7.00;;
77726;SDS011;68312;53.502;10.030;2023-04-21T07:02:05;9.73;;;6.55;;
77726;SDS011;68312;53.502;10.030;2023-04-21T07:04:30;11.48;;;7.35;;
77726;SDS011;68312;53.502;10.030;2023-04-21T07:06:56;12.98;;;6.88;;
77726;SDS011;68312;53.502;10.030;2023-04-21T07:09:22;11.90;;;7.30;;
77726;SDS011;68312;53.502;10.030;2023-04-21T07:11:47;12.13;;;6.85;;
77726;SDS011;68312;53.502;10.030;2023-04-21T07:14:13;12.45;;;6.93;;
77726;SDS011;68312;53.502;10.030;2023-04-21T07:16:38;12.73;;;7.13;;
77726;SDS011;68312;53.502;10.030;2023-04-21T07:19:04;12.75;;;7.15;;
77726;SDS011;68312;53.502;10.030;2023-04-21T07:21:30;13.68;;;6.55;;
77726;SDS011;68312;53.502;10.030;2023-04-21T07:23:56;10.98;;;6.47;;
77726;SDS011;68312;53.502;10.030;2023-04-21T07:26:22;11.90;;;6.50;;
77726;SDS011;68312;53.502;10.030;2023-04-21T07:28:49;10.25;;;7.57;;
77726;SDS011;68312;53.502;10.030;2023-04-21T07:31:19;10.30;;;6.38;;
77726;SDS011;68312;53.502;10.030;2023-04-21T07:33:45;11.77;;;7.20;;
77726;SDS011;68312;53.502;10.030;2023-04-21T07:36:11;9.77;;;6.13;;
77726;SDS011;68312;53.502;10.030;2023-04-21T07:38:36;12.73;;;6.95;;
77726;SDS011;68312;53.502;10.030;2023-04-21T07:41:02;11.63;;;6.60;;
77726;SDS011;68312;53.502;10.030;2023-04-21T07:43:28;13.98;;;7.10;;
77726;SDS011;68312;53.502;10.030;2023-04-21T07:45:56;13.32;;;6.68;;
77726;SDS011;68312;53.502;10.030;2023-04-21T07:48:22;14.15;;;6.50;;
77726;SDS011;68312;53.502;10.030;2023-04-21T07:50:48;12.52;;;6.68;;
77726;SDS011;68312;53.502;10.030;2023-04-21T07:53:14;11.75;;;6.68;;
77726;SDS011;68312;53.502;10.030;2023-04-21T07:55:40;14.20;;;7.75;;
77726;SDS011;68312;53.502;10.030;2023-04-21T07:58:05;10.85;;;6.63;;
77726;SDS011;68312;53.502;10.030;2023-04-21T08:00:31;11.68;;;6.97;;
77726;SDS011;68312;53.502;10.030;2023-04-21T08:02:57;12.25;;;6.50;;
77726;SDS011;68312;53.502;10.030;2023-04-21T08:05:26;9.68;;;6.38;;
77726;SDS011;68312;53.502;10.030;2023-04-21T08:07:53;11.25;;;5.97;;
77726;SDS011;68312;53.502;10.030;2023-04-21T08:10:18;19.35;;;6.18;;
77726;SDS011;68312;53.502;10.030;2023-04-21T08:12:44;9.57;;;5.90;;
77726;SDS011;68312;53.502;10.030;2023-04-21T08:15:12;16.27;;;6.38;;
77726;SDS011;68312;53.502;10.030;2023-04-21T08:17:38;9.93;;;5.85;;
77726;SDS011;68312;53.502;10.030;2023-04-21T08:20:04;12.82;;;6.68;;
77726;SDS011;68312;53.502;10.030;2023-04-21T08:22:31;9.18;;;6.25;;
77726;SDS011;68312;53.502;10.030;2023-04-21T08:24:57;11.60;;;6.00;;
77726;SDS011;68312;53.502;10.030;2023-04-21T08:27:22;9.15;;;5.88;;
77726;SDS011;68312;53.502;10.030;2023-04-21T08:29:48;9.65;;;6.07;;
77726;SDS011;68312;53.502;10.030;2023-04-21T08:32:15;8.60;;;5.72;;
77726;SDS011;68312;53.502;10.030;2023-04-21T08:34:46;10.75;;;6.22;;
77726;SDS011;68312;53.502;10.030;2023-04-21T08:37:13;11.32;;;6.63;;
77726;SDS011;68312;53.502;10.030;2023-04-21T08:39:38;9.73;;;6.07;;
77726;SDS011;68312;53.502;10.030;2023-04-21T08:42:04;13.98;;;6.45;;
77726;SDS011;68312;53.502;10.030;2023-04-21T08:44:31;11.43;;;6.70;;
77726;SDS011;68312;53.502;10.030;2023-04-21T08:46:57;9.25;;;6.20;;
77726;SDS011;68312;53.502;10.030;2023-04-21T08:49:25;10.82;;;6.20;;
77726;SDS011;68312;53.502;10.030;2023-04-21T08:51:55;10.60;;;6.07;;
77726;SDS011;68312;53.502;10.030;2023-04-21T08:54:21;11.93;;;5.80;;
77726;SDS011;68312;53.502;10.030;2023-04-21T08:56:46;10.85;;;6.00;;
77726;SDS011;68312;53.502;10.030;2023-04-21T08:59:13;9.25;;;5.82;;
77726;SDS011;68312;53.502;10.030;2023-04-21T09:04:50;15.23;;;6.47;;
77726;SDS011;68312;53.502;10.030;2023-04-21T09:07:34;10.07;;;5.90;;
77726;SDS011;68312;53.502;10.030;2023-04-21T09:10:03;9.27;;;6.10;;
77726;SDS011;68312;53.502;10.030;2023-04-21T09:12:30;10.15;;;5.82;;
77726;SDS011;68312;53.502;10.030;2023-04-21T09:14:56;11.73;;;5.65;;
77726;SDS011;68312;53.502;10.030;2023-04-21T09:17:27;10.30;;;5.85;;
77726;SDS011;68312;53.502;10.030;2023-04-21T09:20:02;10.73;;;5.65;;
77726;SDS011;68312;53.502;10.030;2023-04-21T09:22:47;9.20;;;5.22;;
77726;SDS011;68312;53.502;10.030;2023-04-21T09:25:19;9.43;;;5.60;;
77726;SDS011;68312;53.502;10.030;2023-04-21T09:27:46;10.40;;;5.95;;
77726;SDS011;68312;53.502;10.030;2023-04-21T09:30:12;8.75;;;5.30;;
77726;SDS011;68312;53.502;10.030;2023-04-21T09:32:43;8.68;;;5.45;;
77726;SDS011;68312;53.502;10.030;2023-04-21T09:35:09;11.05;;;5.47;;
77726;SDS011;68312;53.502;10.030;2023-04-21T09:37:36;7.25;;;5.00;;
77726;SDS011;68312;53.502;10.030;2023-04-21T09:40:04;8.07;;;6.00;;
77726;SDS011;68312;53.502;10.030;2023-04-21T09:42:31;11.40;;;5.75;;
77726;SDS011;68312;53.502;10.030;2023-04-21T09:44:58;8.32;;;5.72;;
77726;SDS011;68312;53.502;10.030;2023-04-21T09:47:23;11.30;;;5.57;;
77726;SDS011;68312;53.502;10.030;2023-04-21T09:49:55;11.50;;;5.85;;
77726;SDS011;68312;53.502;10.030;2023-04-21T09:52:22;9.45;;;5.93;;
77726;SDS011;68312;53.502;10.030;2023-04-21T09:54:56;9.60;;;5.78;;
77726;SDS011;68312;53.502;10.030;2023-04-21T09:57:30;8.27;;;5.63;;
77726;SDS011;68312;53.502;10.030;2023-04-21T10:00:03;10.35;;;6.22;;
77726;SDS011;68312;53.502;10.030;2023-04-21T10:02:34;9.85;;;5.57;;
77726;SDS011;68312;53.502;10.030;2023-04-21T10:05:07;7.95;;;5.57;;
77726;SDS011;68312;53.502;10.030;2023-04-21T10:07:36;10.68;;;5.60;;
77726;SDS011;68312;53.502;10.030;2023-04-21T10:10:01;13.05;;;5.93;;
77726;SDS011;68312;53.502;10.030;2023-04-21T10:12:32;9.27;;;5.13;;
77726;SDS011;68312;53.502;10.030;2023-04-21T10:15:02;7.70;;;5.57;;
77726;SDS011;68312;53.502;10.030;2023-04-21T10:18:16;13.27;;;5.55;;
77726;SDS011;68312;53.502;10.030;2023-04-21T10:21:05;9.95;;;5.57;;
77726;SDS011;68312;53.502;10.030;2023-04-21T10:26:16;10.80;;;5.13;;
77726;SDS011;68312;53.502;10.030;2023-04-21T10:36:42;9.38;;;5.50;;
77726;SDS011;68312;53.502;10.030;2023-04-21T10:39:51;10.38;;;5.55;;
77726;SDS011;68312;53.502;10.030;2023-04-21T10:42:20;7.30;;;4.82;;
77726;SDS011;68312;53.502;10.030;2023-04-21T10:47:26;7.18;;;5.20;;
77726;SDS011;68312;53.502;10.030;2023-04-21T10:55:41;7.50;;;4.70;;
77726;SDS011;68312;53.502;10.030;2023-04-21T10:58:14;14.45;;;5.10;;
77726;SDS011;68312;53.502;10.030;2023-04-21T11:00:40;9.98;;;4.95;;
77726;SDS011;68312;53.502;10.030;2023-04-21T11:03:06;9.82;;;5.45;;
77726;SDS011;68312;53.502;10.030;2023-04-21T11:05:39;8.52;;;4.80;;
77726;SDS011;68312;53.502;10.030;2023-04-21T11:08:12;10.07;;;4.95;;
77726;SDS011;68312;53.502;10.030;2023-04-21T11:10:47;7.72;;;5.38;;
77726;SDS011;68312;53.502;10.030;2023-04-21T11:13:20;7.80;;;4.90;;
77726;SDS011;68312;53.502;10.030;2023-04-21T11:16:00;7.53;;;4.57;;
77726;SDS011;68312;53.502;10.030;2023-04-21T11:18:52;6.85;;;5.03;;
77726;SDS011;68312;53.502;10.030;2023-04-21T11:21:18;7.65;;;5.45;;
77726;SDS011;68312;53.502;10.030;2023-04-21T11:23:47;6.82;;;5.18;;
77726;SDS011;68312;53.502;10.030;2023-04-21T11:26:29;9.60;;;4.93;;
77726;SDS011;68312;53.502;10.030;2023-04-21T11:29:02;8.75;;;5.05;;
77726;SDS011;68312;53.502;10.030;2023-04-21T11:31:31;6.40;;;4.97;;
77726;SDS011;68312;53.502;10.030;2023-04-21T11:33:58;10.50;;;5.07;;
77726;SDS011;68312;53.502;10.030;2023-04-21T11:36:25;8.80;;;5.25;;
77726;SDS011;68312;53.502;10.030;2023-04-21T11:38:51;7.07;;;5.18;;
77726;SDS011;68312;53.502;10.030;2023-04-21T11:41:21;9.88;;;5.65;;
77726;SDS011;68312;53.502;10.030;2023-04-21T11:43:49;7.32;;;4.90;;
77726;SDS011;68312;53.502;10.030;2023-04-21T11:46:26;9.00;;;5.20;;
77726;SDS011;68312;53.502;10.030;2023-04-21T11:48:59;9.52;;;4.93;;
77726;SDS011;68312;53.502;10.030;2023-04-21T11:51:34;9.88;;;5.18;;
77726;SDS011;68312;53.502;10.030;2023-04-21T11:54:06;11.00;;;5.47;;
77726;SDS011;68312;53.502;10.030;2023-04-21T11:56:39;8.95;;;5.05;;
77726;SDS011;68312;53.502;10.030;2023-04-21T11:59:11;7.70;;;4.60;;
77726;SDS011;68312;53.502;10.030;2023-04-21T12:04:15;6.60;;;4.93;;
77726;SDS011;68312;53.502;10.030;2023-04-21T12:06:58;10.38;;;5.18;;
77726;SDS011;68312;53.502;10.030;2023-04-21T12:09:27;9.27;;;5.15;;
77726;SDS011;68312;53.502;10.030;2023-04-21T12:11:55;9.32;;;5.57;;
77726;SDS011;68312;53.502;10.030;2023-04-21T12:14:23;10.43;;;4.80;;
77726;SDS011;68312;53.502;10.030;2023-04-21T12:16:53;7.28;;;4.93;;
77726;SDS011;68312;53.502;10.030;2023-04-21T12:22:11;8.85;;;5.22;;
77726;SDS011;68312;53.502;10.030;2023-04-21T12:24:46;7.57;;;5.35;;
77726;SDS011;68312;53.502;10.030;2023-04-21T12:27:12;7.22;;;5.13;;
77726;SDS011;68312;53.502;10.030;2023-04-21T12:29:39;6.05;;;4.55;;
77726;SDS011;68312;53.502;10.030;2023-04-21T12:32:06;8.15;;;4.70;;
77726;SDS011;68312;53.502;10.030;2023-04-21T12:34:33;7.55;;;4.90;;
77726;SDS011;68312;53.502;10.030;2023-04-21T12:37:00;8.50;;;5.45;;
77726;SDS011;68312;53.502;10.030;2023-04-21T12:39:26;8.35;;;5.13;;
77726;SDS011;68312;53.502;10.030;2023-04-21T12:41:52;8.50;;;5.18;;
77726;SDS011;68312;53.502;10.030;2023-04-21T12:44:18;9.50;;;5.85;;
77726;SDS011;68312;53.502;10.030;2023-04-21T12:46:45;7.47;;;5.35;;
77726;SDS011;68312;53.502;10.030;2023-04-21T12:49:12;10.55;;;5.38;;
77726;SDS011;68312;53.502;10.030;2023-04-21T12:51:39;7.68;;;5.18;;
77726;SDS011;68312;53.502;10.030;2023-04-21T12:54:05;9.18;;;5.15;;
77726;SDS011;68312;53.502;10.030;2023-04-21T12:56:30;7.95;;;5.60;;
77726;SDS011;68312;53.502;10.030;2023-04-21T12:58:56;9.43;;;5.63;;
77726;SDS011;68312;53.502;10.030;2023-04-21T13:01:22;7.50;;;5.22;;
77726;SDS011;68312;53.502;10.030;2023-04-21T13:03:48;8.60;;;5.47;;
77726;SDS011;68312;53.502;10.030;2023-04-21T13:06:14;10.45;;;5.53;;
77726;SDS011;68312;53.502;10.030;2023-04-21T13:08:39;9.95;;;4.70;;
77726;SDS011;68312;53.502;10.030;2023-04-21T13:11:05;8.40;;;5.18;;
77726;SDS011;68312;53.502;10.030;2023-04-21T13:13:30;7.20;;;4.65;;
77726;SDS011;68312;53.502;10.030;2023-04-21T13:15:56;7.07;;;4.88;;
77726;SDS011;68312;53.502;10.030;2023-04-21T13:18:22;5.72;;;4.85;;
77726;SDS011;68312;53.502;10.030;2023-04-21T13:20:47;8.88;;;4.82;;
77726;SDS011;68312;53.502;10.030;2023-04-21T13:23:13;8.88;;;4.88;;
77726;SDS011;68312;53.502;10.030;2023-04-21T13:25:40;10.30;;;5.30;;
77726;SDS011;68312;53.502;10.030;2023-04-21T13:28:05;8.50;;;5.68;;
77726;SDS011;68312;53.502;10.030;2023-04-21T13:30:32;6.18;;;4.78;;
77726;SDS011;68312;53.502;10.030;2023-04-21T13:32:58;11.02;;;5.25;;
77726;SDS011;68312;53.502;10.030;2023-04-21T13:35:24;7.25;;;5.05;;
77726;SDS011;68312;53.502;10.030;2023-04-21T13:37:50;7.78;;;5.00;;
77726;SDS011;68312;53.502;10.030;2023-04-21T13:40:15;8.10;;;5.18;;
77726;SDS011;68312;53.502;10.030;2023-04-21T13:42:41;8.65;;;5.30;;
77726;SDS011;68312;53.502;10.030;2023-04-21T13:45:06;8.18;;;5.30;;
77726;SDS011;68312;53.502;10.030;2023-04-21T13:47:33;8.13;;;5.30;;
77726;SDS011;68312;53.502;10.030;2023-04-21T13:49:59;7.82;;;5.28;;
77726;SDS011;68312;53.502;10.030;2023-04-21T13:52:25;7.65;;;4.95;;
77726;SDS011;68312;53.502;10.030;2023-04-21T13:54:51;7.68;;;5.13;;
77726;SDS011;68312;53.502;10.030;2023-04-21T13:57:18;9.13;;;5.50;;
77726;SDS011;68312;53.502;10.030;2023-04-21T13:59:45;9.85;;;5.30;;
77726;SDS011;68312;53.502;10.030;2023-04-21T14:02:11;7.25;;;5.13;;
77726;SDS011;68312;53.502;10.030;2023-04-21T14:04:37;8.80;;;4.65;;
77726;SDS011;68312;53.502;10.030;2023-04-21T14:07:03;9.18;;;5.05;;
77726;SDS011;68312;53.502;10.030;2023-04-21T14:09:32;8.57;;;5.13;;
77726;SDS011;68312;53.502;10.030;2023-04-21T14:11:58;8.60;;;5.10;;
77726;SDS011;68312;53.502;10.030;2023-04-21T14:14:23;8.90;;;5.18;;
77726;SDS011;68312;53.502;10.030;2023-04-21T14:16:49;9.48;;;5.80;;
77726;SDS011;68312;53.502;10.030;2023-04-21T14:19:15;6.22;;;5.10;;
77726;SDS011;68312;53.502;10.030;2023-04-21T14:21:41;8.35;;;5.22;;
77726;SDS011;68312;53.502;10.030;2023-04-21T14:24:08;7.47;;;5.03;;
77726;SDS011;68312;53.502;10.030;2023-04-21T14:26:34;7.65;;;5.00;;
77726;SDS011;68312;53.502;10.030;2023-04-21T14:29:00;8.40;;;5.13;;
77726;SDS011;68312;53.502;10.030;2023-04-21T14:31:29;6.72;;;5.35;;
77726;SDS011;68312;53.502;10.030;2023-04-21T14:33:55;11.13;;;5.47;;
77726;SDS011;68312;53.502;10.030;2023-04-21T14:36:21;9.60;;;5.53;;
77726;SDS011;68312;53.502;10.030;2023-04-21T14:38:47;7.18;;;5.10;;
77726;SDS011;68312;53.502;10.030;2023-04-21T14:41:13;7.05;;;5.25;;
77726;SDS011;68312;53.502;10.030;2023-04-21T14:43:39;8.85;;;4.80;;
77726;SDS011;68312;53.502;10.030;2023-04-21T14:46:05;7.57;;;5.72;;
77726;SDS011;68312;53.502;10.030;2023-04-21T14:48:31;11.35;;;5.32;;
77726;SDS011;68312;53.502;10.030;2023-04-21T14:50:57;7.97;;;4.75;;
77726;SDS011;68312;53.502;10.030;2023-04-21T14:53:26;7.93;;;4.68;;
77726;SDS011;68312;53.502;10.030;2023-04-21T14:55:51;8.02;;;5.07;;